createdAt,value
2018-09-12T00:02:36.518Z,60.35
2018-09-12T00:05:39.832Z,59.19
2018-09-12T00:08:43.114Z,59.34
2018-09-12T00:11:46.271Z,58.79
2018-09-12T00:14:49.631Z,59.29
2018-09-12T00:17:52.901Z,59.40
2018-09-12T00:20:56.126Z,59.70
2018-09-12T00:23:59.780Z,60.00
2018-09-12T00:27:04.057Z,61.24
2018-09-12T00:30:07.335Z,60.99
2018-09-12T00:33:10.713Z,60.24
2018-09-12T00:36:14.018Z,61.79
2018-09-12T00:39:17.239Z,60.33
2018-09-12T00:42:20.515Z,59.99
2018-09-12T00:45:23.809Z,60.42
2018-09-12T00:48:28.032Z,61.83
2018-09-12T00:51:31.439Z,61.99
2018-09-12T00:54:34.751Z,61.22
2018-09-12T00:57:38.022Z,60.42
2018-09-12T01:00:41.321Z,62.09
2018-09-12T01:03:44.618Z,60.88
2018-09-12T01:06:47.961Z,61.06
2018-09-12T01:09:51.239Z,61.97
2018-09-12T01:12:54.522Z,62.03
2018-09-12T01:15:57.816Z,61.52
2018-09-12T01:19:01.975Z,62.39
2018-09-12T01:22:11.079Z,63.10
2018-09-12T01:25:14.352Z,62.83
2018-09-12T01:28:17.572Z,62.46
2018-09-12T01:31:20.883Z,61.39
2018-09-12T01:34:24.395Z,63.01
2018-09-12T01:37:27.670Z,62.03
2018-09-12T01:40:32.183Z,62.38
2018-09-12T01:43:36.423Z,62.91
2018-09-12T01:46:39.773Z,62.95
2018-09-12T01:49:42.996Z,63.09
2018-09-12T01:52:46.938Z,62.87
2018-09-12T01:55:50.214Z,62.92
2018-09-12T01:58:53.507Z,63.14
2018-09-12T02:01:56.798Z,63.03
2018-09-12T02:05:00.775Z,63.47
2018-09-12T02:08:04.128Z,63.43
2018-09-12T02:11:08.414Z,63.49
2018-09-12T02:14:11.632Z,63.39
2018-09-12T02:17:14.986Z,63.45
2018-09-12T02:20:18.230Z,62.61
2018-09-12T02:23:21.525Z,62.89
2018-09-12T02:26:24.951Z,62.27
2018-09-12T02:29:28.879Z,62.98
2018-09-12T02:32:32.113Z,63.77
2018-09-12T02:35:39.565Z,63.18
2018-09-12T02:38:42.846Z,62.64
2018-09-12T02:41:46.195Z,63.08
2018-09-12T02:44:49.520Z,63.15
2018-09-12T02:47:52.720Z,63.39
2018-09-12T02:50:56.015Z,64.10
2018-09-12T02:54:00.010Z,63.29
2018-09-12T02:57:03.339Z,64.32
2018-09-12T03:00:07.199Z,64.72
2018-09-12T03:03:10.551Z,64.40
2018-09-12T03:06:14.071Z,65.08
2018-09-12T03:09:17.348Z,64.44
2018-09-12T03:12:20.515Z,64.48
2018-09-12T03:15:23.695Z,65.39
2018-09-12T03:18:27.265Z,64.81
2018-09-12T03:21:31.240Z,64.88
2018-09-12T03:24:34.684Z,65.17
2018-09-12T03:27:38.009Z,64.76
2018-09-12T03:30:41.357Z,65.62
2018-09-12T03:33:44.622Z,65.42
2018-09-12T03:36:47.847Z,66.02
2018-09-12T03:39:51.132Z,66.57
2018-09-12T03:42:54.656Z,66.03
2018-09-12T03:45:57.947Z,66.49
2018-09-12T03:49:02.146Z,65.60
2018-09-12T03:52:05.279Z,65.75
2018-09-12T03:55:08.523Z,66.62
2018-09-12T03:58:11.741Z,66.28
2018-09-12T04:01:15.033Z,65.98
2018-09-12T04:04:18.344Z,66.44
2018-09-12T04:07:21.525Z,66.65
2018-09-12T04:10:24.832Z,66.88
2018-09-12T04:13:28.978Z,67.28
2018-09-12T04:16:32.255Z,66.37
2018-09-12T04:19:35.544Z,67.27
2018-09-12T04:22:39.025Z,67.01
2018-09-12T04:25:42.343Z,66.42
2018-09-12T04:28:45.949Z,66.72
2018-09-12T04:31:49.274Z,67.34
2018-09-12T04:34:52.907Z,67.16
2018-09-12T04:37:56.392Z,67.39
2018-09-12T04:41:00.355Z,67.01
2018-09-12T04:44:03.620Z,66.84
2018-09-12T04:47:07.154Z,68.22
2018-09-12T04:50:10.351Z,68.05
2018-09-12T04:53:13.688Z,68.00
2018-09-12T04:56:16.945Z,67.55
2018-09-12T04:59:20.137Z,67.85
2018-09-12T05:02:23.411Z,68.23
2018-09-12T05:05:27.704Z,67.12
2018-09-12T05:08:32.193Z,68.10
2018-09-12T05:11:35.348Z,67.93
2018-09-12T05:14:38.587Z,68.83
2018-09-12T05:17:41.872Z,68.76
2018-09-12T05:20:46.414Z,68.49
2018-09-12T05:23:49.703Z,68.04
2018-09-12T05:26:53.094Z,67.72
2018-09-12T05:29:56.355Z,68.80
2018-09-12T05:33:00.443Z,67.70
2018-09-12T05:36:03.604Z,68.35
2018-09-12T05:39:08.969Z,68.34
2018-09-12T05:42:12.228Z,68.18
2018-09-12T05:45:15.441Z,68.74
2018-09-12T05:48:18.847Z,68.92
2018-09-12T05:51:22.238Z,68.63
2018-09-12T05:54:26.583Z,68.51
2018-09-12T05:57:30.971Z,67.32
2018-09-12T06:00:34.177Z,68.02
2018-09-12T06:03:37.471Z,67.75
2018-09-12T06:06:40.740Z,67.70
2018-09-12T06:09:43.953Z,67.35
2018-09-12T06:12:48.251Z,67.25
2018-09-12T06:15:51.475Z,66.66
2018-09-12T06:18:54.796Z,66.62
2018-09-12T06:21:57.983Z,66.40
2018-09-12T06:25:01.728Z,65.73
2018-09-12T06:28:05.251Z,65.21
2018-09-12T06:31:08.585Z,65.33
2018-09-12T06:34:11.728Z,64.89
2018-09-12T06:37:14.968Z,64.74
2018-09-12T06:40:18.189Z,64.30
2018-09-12T06:43:21.478Z,63.76
2018-09-12T06:46:24.775Z,63.37
2018-09-12T06:49:27.954Z,63.11
2018-09-12T06:52:31.300Z,62.83
2018-09-12T06:55:34.544Z,62.54
2018-09-12T06:58:38.927Z,62.12
2018-09-12T07:01:42.184Z,62.42
2018-09-12T07:04:45.486Z,61.72
2018-09-12T07:07:48.756Z,60.75
2018-09-12T07:10:52.031Z,60.41
2018-09-12T07:13:55.379Z,59.51
2018-09-12T07:16:59.209Z,58.99
2018-09-12T07:20:02.491Z,58.56
2018-09-12T07:23:06.012Z,58.48
2018-09-12T07:26:09.366Z,57.67
2018-09-12T07:29:12.758Z,57.45
2018-09-12T07:32:16.116Z,57.23
2018-09-12T07:35:19.363Z,56.88
2018-09-12T07:38:22.581Z,57.04
2018-09-12T07:41:25.936Z,56.46
2018-09-12T07:44:30.323Z,56.16
2018-09-12T07:47:33.603Z,56.14
2018-09-12T07:50:36.936Z,55.92
2018-09-12T07:53:40.324Z,55.38
2018-09-12T07:56:43.729Z,56.02
2018-09-12T07:59:46.988Z,55.11
2018-09-12T08:02:50.328Z,54.67
2018-09-12T08:05:53.591Z,53.85
2018-09-12T08:08:56.920Z,53.52
2018-09-12T08:12:00.935Z,52.90
2018-09-12T08:15:04.175Z,53.27
2018-09-12T08:18:07.393Z,52.59
2018-09-12T08:21:11.272Z,52.55
2018-09-12T08:24:14.479Z,52.40
2018-09-12T08:27:18.842Z,52.19
2018-09-12T08:30:22.148Z,51.16
2018-09-12T08:33:25.541Z,52.61
2018-09-12T08:36:28.791Z,51.20
2018-09-12T08:39:32.996Z,51.12
2018-09-12T08:42:36.397Z,50.31
2018-09-12T08:45:39.550Z,50.53
2018-09-12T08:48:42.925Z,50.68
2018-09-12T08:51:46.226Z,47.05
2018-09-12T08:54:49.503Z,47.84
2018-09-12T08:57:52.926Z,46.76
2018-09-12T09:00:56.229Z,47.01
2018-09-12T09:04:00.241Z,46.36
2018-09-12T09:07:03.430Z,46.38
2018-09-12T09:10:06.719Z,46.52
2018-09-12T09:13:10.020Z,45.46
2018-09-12T09:16:13.294Z,46.23
2018-09-12T09:19:16.604Z,45.66
2018-09-12T09:22:19.876Z,45.53
2018-09-12T09:25:23.088Z,44.74
2018-09-12T09:28:26.426Z,43.49
2018-09-12T09:31:30.182Z,43.61
2018-09-12T09:34:33.420Z,42.67
2018-09-12T09:37:36.932Z,42.57
2018-09-12T09:40:40.256Z,42.89
2018-09-12T09:43:43.574Z,42.39
2018-09-12T09:46:47.834Z,42.00
2018-09-12T09:49:55.440Z,41.66
2018-09-12T09:52:59.270Z,40.85
2018-09-12T09:56:03.075Z,39.73
2018-09-12T09:59:06.318Z,39.86
2018-09-12T10:02:14.912Z,39.75
2018-09-12T10:05:23.551Z,39.76
2018-09-12T10:08:30.134Z,39.10
2018-09-12T10:11:33.457Z,38.17
2018-09-12T10:14:36.731Z,37.59
2018-09-12T10:17:40.010Z,36.48
2018-09-12T10:20:44.556Z,36.92
2018-09-12T10:23:47.887Z,35.91
2018-09-12T10:26:51.144Z,35.51
2018-09-12T10:29:55.402Z,35.17
2018-09-12T10:32:59.233Z,35.64
2018-09-12T10:36:02.384Z,35.32
2018-09-12T10:39:08.367Z,34.86
2018-09-12T10:42:11.542Z,34.22
2018-09-12T10:45:14.868Z,34.93
2018-09-12T10:48:18.057Z,34.42
2018-09-12T10:51:22.377Z,34.19
2018-09-12T10:54:25.682Z,34.03
2018-09-12T10:57:29.304Z,33.38
2018-09-12T11:00:32.561Z,33.00
2018-09-12T11:03:35.772Z,33.54
2018-09-12T11:06:39.067Z,33.37
2018-09-12T11:09:42.354Z,32.95
2018-09-12T11:12:46.204Z,32.16
2018-09-12T11:15:49.548Z,32.73
2018-09-12T11:18:52.907Z,32.71
2018-09-12T11:21:56.154Z,31.88
2018-09-12T11:25:00.288Z,31.73
2018-09-12T11:28:03.641Z,32.06
2018-09-12T11:31:07.045Z,31.38
2018-09-12T11:34:10.307Z,31.81
2018-09-12T11:37:13.640Z,31.74
2018-09-12T11:40:16.980Z,31.78
2018-09-12T11:43:20.171Z,31.94
2018-09-12T11:46:23.438Z,31.44
2018-09-12T11:49:26.804Z,31.39
2018-09-12T11:52:31.113Z,31.29
2018-09-12T11:55:34.426Z,31.57
2018-09-12T11:58:37.665Z,31.52
2018-09-12T12:01:41.051Z,31.42
2018-09-12T12:04:44.412Z,30.75
2018-09-12T12:07:47.853Z,31.30
2018-09-12T12:10:51.284Z,30.67
2018-09-12T12:13:54.655Z,31.05
2018-09-12T12:16:59.439Z,30.57
2018-09-12T12:20:02.605Z,31.18
2018-09-12T12:23:06.351Z,30.89
2018-09-12T12:26:09.723Z,30.27
2018-09-12T12:29:12.887Z,30.41
2018-09-12T12:32:16.213Z,30.50
2018-09-12T12:35:21.067Z,30.31
2018-09-12T12:38:24.533Z,30.61
2018-09-12T12:41:27.768Z,30.43
2018-09-12T12:44:32.396Z,30.15
2018-09-12T12:47:35.666Z,29.87
2018-09-12T12:50:38.855Z,29.78
2018-09-12T12:53:42.218Z,30.16
2018-09-12T12:56:45.594Z,30.35
2018-09-12T12:59:48.838Z,30.20
2018-09-12T13:02:52.196Z,30.08
2018-09-12T13:05:55.454Z,30.06
2018-09-12T13:08:59.385Z,30.50
2018-09-12T13:12:02.515Z,30.46
2018-09-12T13:15:06.932Z,30.13
2018-09-12T13:18:10.148Z,29.94
2018-09-12T13:21:13.494Z,30.21
2018-09-12T13:24:16.640Z,30.56
2018-09-12T13:27:20.174Z,30.06
2018-09-12T13:30:23.494Z,28.67
2018-09-12T13:33:26.755Z,28.81
2018-09-12T13:36:30.888Z,28.17
2018-09-12T13:39:34.059Z,28.42
2018-09-12T13:42:37.591Z,28.76
2018-09-12T13:45:40.757Z,28.69
2018-09-12T13:48:44.075Z,28.86
2018-09-12T13:51:47.358Z,29.01
2018-09-12T13:54:50.763Z,28.58
2018-09-12T13:57:53.951Z,28.58
2018-09-12T14:00:57.268Z,28.60
2018-09-12T14:04:01.284Z,28.56
2018-09-12T14:07:04.662Z,28.77
2018-09-12T14:10:08.017Z,28.70
2018-09-12T14:13:11.342Z,28.43
2018-09-12T14:16:14.620Z,28.35
2018-09-12T14:19:17.962Z,28.11
2018-09-12T14:22:21.069Z,28.20
2018-09-12T14:25:24.359Z,28.46
2018-09-12T14:28:27.615Z,28.13
2018-09-12T14:31:32.087Z,28.68
2018-09-12T14:34:35.404Z,28.28
2018-09-12T14:37:38.783Z,27.60
2018-09-12T14:40:42.062Z,27.08
2018-09-12T14:43:46.384Z,27.26
2018-09-12T14:46:49.679Z,27.35
2018-09-12T14:49:53.065Z,27.52
2018-09-12T14:52:56.375Z,27.39
2018-09-12T14:56:00.359Z,27.36
2018-09-12T14:59:04.751Z,27.36
2018-09-12T15:02:08.071Z,27.37
2018-09-12T15:05:11.371Z,27.82
2018-09-12T15:08:14.708Z,27.75
2018-09-12T15:11:18.090Z,27.54
2018-09-12T15:14:22.328Z,27.11
2018-09-12T15:17:25.645Z,27.24
2018-09-12T15:20:29.578Z,27.61
2018-09-12T15:23:32.851Z,27.68
2018-09-12T15:26:36.963Z,28.97
2018-09-12T15:29:40.247Z,29.13
2018-09-12T15:32:43.597Z,29.55
2018-09-12T15:35:47.831Z,29.75
2018-09-12T15:38:51.193Z,30.27
2018-09-12T15:41:54.526Z,29.84
2018-09-12T15:44:58.056Z,29.53
2018-09-12T15:48:02.008Z,29.67
2018-09-12T15:51:05.231Z,29.79
2018-09-12T15:54:08.625Z,29.47
2018-09-12T15:57:11.969Z,29.60
2018-09-12T16:00:16.223Z,29.75
2018-09-12T16:03:19.520Z,30.32
2018-09-12T16:06:22.840Z,30.25
2018-09-12T16:09:26.109Z,30.21
2018-09-12T16:12:30.383Z,30.68
2018-09-12T16:15:34.001Z,30.72
2018-09-12T16:18:37.564Z,30.96
2018-09-12T16:21:40.912Z,30.72
2018-09-12T16:24:44.181Z,30.94
2018-09-12T16:27:47.612Z,30.87
2018-09-12T16:30:50.915Z,31.21
2018-09-12T16:33:55.260Z,31.03
2018-09-12T16:36:58.540Z,31.02
2018-09-12T16:40:03.730Z,30.96
2018-09-12T16:43:07.243Z,30.90
2018-09-12T16:46:10.835Z,30.87
2018-09-12T16:49:14.079Z,30.95
2018-09-12T16:52:17.283Z,30.95
2018-09-12T16:55:20.608Z,30.66
2018-09-12T16:58:23.819Z,30.60
2018-09-12T17:01:27.079Z,30.79
2018-09-12T17:04:31.528Z,31.14
2018-09-12T17:07:34.838Z,31.39
2018-09-12T17:10:38.081Z,31.42
2018-09-12T17:13:41.371Z,31.47
2018-09-12T17:16:44.572Z,31.52
2018-09-12T17:19:47.898Z,31.71
2018-09-12T17:22:51.150Z,31.96
2018-09-12T17:25:54.592Z,31.95
2018-09-12T17:28:57.888Z,32.02
2018-09-12T17:32:01.892Z,32.40
2018-09-12T17:35:05.272Z,32.93
2018-09-12T17:38:08.599Z,33.02
2018-09-12T17:41:11.867Z,33.24
2018-09-12T17:44:15.270Z,33.52
2018-09-12T17:47:18.578Z,33.69
2018-09-12T17:50:21.808Z,33.91
2018-09-12T17:53:25.060Z,34.13
2018-09-12T17:56:28.303Z,34.76
2018-09-12T17:59:32.942Z,35.59
2018-09-12T18:02:36.180Z,37.01
2018-09-12T18:05:39.664Z,37.32
2018-09-12T18:08:43.024Z,37.59
2018-09-12T18:11:46.249Z,38.04
2018-09-12T18:14:49.521Z,38.31
2018-09-12T18:17:52.820Z,38.77
2018-09-12T18:20:56.239Z,38.90
2018-09-12T18:24:00.241Z,39.34
2018-09-12T18:27:03.734Z,39.47
2018-09-12T18:30:07.967Z,40.12
2018-09-12T18:33:11.242Z,40.53
2018-09-12T18:36:14.438Z,40.78
2018-09-12T18:39:17.744Z,41.20
2018-09-12T18:42:21.088Z,41.19
2018-09-12T18:45:24.444Z,41.72
2018-09-12T18:48:27.749Z,41.88
2018-09-12T18:51:31.140Z,42.54
2018-09-12T18:54:34.395Z,43.36
2018-09-12T18:57:37.787Z,43.57
2018-09-12T19:00:41.130Z,43.99
2018-09-12T19:03:44.401Z,44.05
2018-09-12T19:06:48.191Z,44.37
2018-09-12T19:09:51.754Z,45.37
2018-09-12T19:12:55.060Z,45.44
2018-09-12T19:15:58.211Z,45.94
2018-09-12T19:19:01.540Z,45.93
2018-09-12T19:22:04.812Z,46.57
2018-09-12T19:25:09.220Z,46.89
2018-09-12T19:28:12.523Z,47.71
2018-09-12T19:31:15.829Z,47.77
2018-09-12T19:34:20.087Z,48.01
2018-09-12T19:37:23.339Z,48.20
2018-09-12T19:40:26.683Z,47.92
2018-09-12T19:43:29.927Z,48.20
2018-09-12T19:46:34.374Z,48.38
2018-09-12T19:49:37.699Z,48.63
2018-09-12T19:52:40.969Z,49.03
2018-09-12T19:55:44.275Z,49.30
2018-09-12T19:58:48.681Z,49.85
2018-09-12T20:01:51.989Z,49.92
2018-09-12T20:04:55.506Z,50.01
2018-09-12T20:07:58.776Z,49.73
2018-09-12T20:11:02.861Z,50.53
2018-09-12T20:14:06.218Z,50.90
2018-09-12T20:17:09.551Z,50.74
2018-09-12T20:20:12.850Z,50.90
2018-09-12T20:23:16.206Z,51.25
2018-09-12T20:26:20.864Z,51.82
2018-09-12T20:29:24.124Z,51.14
2018-09-12T20:32:27.438Z,51.68
2018-09-12T20:35:31.808Z,52.04
2018-09-12T20:38:35.045Z,52.47
2018-09-12T20:41:38.384Z,53.00
2018-09-12T20:44:41.642Z,52.48
2018-09-12T20:47:45.040Z,53.00
2018-09-12T20:50:50.152Z,51.37
2018-09-12T20:53:53.464Z,52.19
2018-09-12T20:56:56.763Z,52.47
2018-09-12T21:00:00.357Z,52.60
2018-09-12T21:03:03.671Z,52.84
2018-09-12T21:06:06.942Z,52.94
2018-09-12T21:09:12.733Z,52.89
2018-09-12T21:12:15.883Z,52.65
2018-09-12T21:15:20.140Z,50.66
2018-09-12T21:18:23.445Z,50.11
2018-09-12T21:21:26.827Z,49.27
2018-09-12T21:24:30.246Z,48.51
2018-09-12T21:27:33.556Z,47.82
2018-09-12T21:30:36.991Z,47.48
2018-09-12T21:33:40.230Z,47.51
2018-09-12T21:36:43.539Z,47.56
2018-09-12T21:39:46.807Z,47.53
2018-09-12T21:42:50.567Z,47.90
2018-09-12T21:45:53.918Z,48.03
2018-09-12T21:48:57.793Z,48.11
2018-09-12T21:52:01.865Z,48.45
2018-09-12T21:55:05.243Z,48.65
2018-09-12T21:58:08.563Z,48.83
2018-09-12T22:01:11.812Z,48.84
2018-09-12T22:04:15.135Z,48.83
2018-09-12T22:07:19.114Z,49.05
2018-09-12T22:10:22.341Z,49.03
2018-09-12T22:13:25.649Z,49.24
2018-09-12T22:16:28.912Z,48.99
2018-09-12T22:19:33.384Z,48.92
2018-09-12T22:22:36.711Z,49.59
2018-09-12T22:25:39.934Z,48.94
2018-09-12T22:28:43.117Z,49.45
2018-09-12T22:31:46.486Z,49.26
2018-09-12T22:34:49.759Z,49.56
2018-09-12T22:37:53.276Z,49.57
2018-09-12T22:40:56.557Z,50.04
2018-09-12T22:43:59.903Z,50.37
2018-09-12T22:47:03.272Z,50.60
2018-09-12T22:50:06.751Z,50.71
2018-09-12T22:53:10.022Z,51.39
2018-09-12T22:56:13.339Z,51.58
2018-09-12T22:59:16.642Z,51.53
2018-09-12T23:02:20.856Z,52.21
2018-09-12T23:05:24.128Z,52.40
2018-09-12T23:08:27.334Z,52.95
2018-09-12T23:11:30.571Z,52.71
2018-09-12T23:14:33.867Z,53.24
2018-09-12T23:17:37.153Z,53.65
2018-09-12T23:20:40.439Z,54.08
2018-09-12T23:23:43.763Z,54.35
2018-09-12T23:26:47.002Z,54.58
2018-09-12T23:29:51.107Z,54.68
2018-09-12T23:32:54.485Z,55.53
2018-09-12T23:35:57.820Z,55.83
2018-09-12T23:39:01.041Z,56.14
2018-09-12T23:42:04.318Z,56.47
2018-09-12T23:45:07.626Z,56.70
2018-09-12T23:48:10.832Z,57.33
2018-09-12T23:51:14.130Z,57.64
2018-09-12T23:54:17.427Z,58.14
2018-09-12T23:57:21.446Z,58.03
